Time;durP1;ratioP1;P1;durP2;ratioP2;P2;SDS_P1;SDS_P2;PMS_P1;PMS_P2;Temp;Humidity;BMP_temperature;BMP_pressure;BME280_temperature;BME280_humidity;BME280_pressure;Samples;Min_cycle;Max_cycle;Signal;HPM_P1;HPM_P2
2021/07/09 00:01:46;;;;;;;6.50;6.00;;;;;;;;;;5073082;28;20541;-62
2021/07/09 00:04:15;;;;;;;8.20;6.27;;;;;;;;;;5073340;28;20439;-62
2021/07/09 00:06:42;;;;;;;8.70;6.50;;;;;;;;;;5072923;28;20947;-62
2021/07/09 00:09:11;;;;;;;7.50;5.60;;;;;;;;;;5073034;28;20452;-62
2021/07/09 00:11:39;;;;;;;7.27;6.57;;;;;;;;;;5073176;28;20459;-63
2021/07/09 00:14:07;;;;;;;6.80;6.20;;;;;;;;;;5073695;28;20532;-62
2021/07/09 00:16:34;;;;;;;7.20;6.50;;;;;;;;;;5073013;28;20542;-62
2021/07/09 00:19:03;;;;;;;7.43;6.03;;;;;;;;;;5073108;28;20500;-62
2021/07/09 00:21:31;;;;;;;6.33;5.83;;;;;;;;;;5072891;28;20504;-62
2021/07/09 00:23:59;;;;;;;8.27;7.10;;;;;;;;;;5075204;28;20451;-62
2021/07/09 00:26:28;;;;;;;7.30;6.70;;;;;;;;;;5077831;28;20564;-62
2021/07/09 00:28:55;;;;;;;7.43;6.70;;;;;;;;;;5076905;28;20447;-63
2021/07/09 00:31:23;;;;;;;8.27;7.47;;;;;;;;;;5076819;28;20523;-62
2021/07/09 00:33:50;;;;;;;8.13;6.20;;;;;;;;;;5076651;28;20487;-62
2021/07/09 00:36:17;;;;;;;8.27;7.40;;;;;;;;;;5076775;28;20493;-61
2021/07/09 00:38:45;;;;;;;10.80;7.83;;;;;;;;;;5076852;28;20852;-62
2021/07/09 00:41:12;;;;;;;9.20;8.30;;;;;;;;;;5076759;28;20992;-62
2021/07/09 00:43:41;;;;;;;9.53;8.43;;;;;;;;;;5076670;28;21028;-62
2021/07/09 00:46:08;;;;;;;12.90;9.40;;;;;;;;;;5076602;28;21000;-62
2021/07/09 00:48:35;;;;;;;12.20;10.20;;;;;;;;;;5076660;28;20446;-62
2021/07/09 00:51:03;;;;;;;12.63;9.73;;;;;;;;;;5076794;28;20446;-62
2021/07/09 00:53:30;;;;;;;11.17;9.27;;;;;;;;;;5076289;28;20993;-63
2021/07/09 00:55:58;;;;;;;9.33;8.47;;;;;;;;;;5076726;28;20442;-62
2021/07/09 00:58:25;;;;;;;10.97;8.57;;;;;;;;;;5076698;28;20446;-62
2021/07/09 01:00:54;;;;;;;10.60;8.73;;;;;;;;;;5076697;28;20492;-62
2021/07/09 01:03:21;;;;;;;9.77;8.13;;;;;;;;;;5076523;28;20466;-63
2021/07/09 01:05:49;;;;;;;13.57;9.77;;;;;;;;;;5076257;28;21000;-62
2021/07/09 01:08:16;;;;;;;10.97;8.63;;;;;;;;;;5076238;28;20946;-61
2021/07/09 01:10:44;;;;;;;9.27;8.47;;;;;;;;;;5076439;28;21000;-62
2021/07/09 01:13:11;;;;;;;9.67;8.70;;;;;;;;;;5076163;28;20974;-62
2021/07/09 01:15:38;;;;;;;10.23;9.00;;;;;;;;;;5076208;28;20935;-62
2021/07/09 01:18:07;;;;;;;9.23;8.00;;;;;;;;;;5076264;28;20447;-62
2021/07/09 01:20:34;;;;;;;8.60;7.80;;;;;;;;;;5076157;28;20571;-60
2021/07/09 01:23:03;;;;;;;11.20;8.27;;;;;;;;;;5076235;28;20520;-61
2021/07/09 01:25:32;;;;;;;12.47;9.10;;;;;;;;;;5076448;28;20542;-62
2021/07/09 01:28:00;;;;;;;10.50;9.57;;;;;;;;;;5075931;28;20443;-62
2021/07/09 01:30:28;;;;;;;10.23;8.37;;;;;;;;;;5076066;28;20500;-62
2021/07/09 01:32:56;;;;;;;13.87;8.90;;;;;;;;;;5075841;28;20471;-62
2021/07/09 01:35:24;;;;;;;9.03;8.30;;;;;;;;;;5074938;28;20443;-63
2021/07/09 01:37:59;;;;;;;12.90;9.23;;;;;;;;;;5075911;28;20505;-62
2021/07/09 01:40:26;;;;;;;10.70;8.90;;;;;;;;;;5075956;28;20499;-62
2021/07/09 01:42:55;;;;;;;11.70;8.30;;;;;;;;;;5075771;28;20524;-62
2021/07/09 01:45:23;;;;;;;10.53;7.77;;;;;;;;;;5075687;28;20447;-62
2021/07/09 01:47:50;;;;;;;12.50;8.00;;;;;;;;;;5075775;28;20443;-62
2021/07/09 01:50:18;;;;;;;9.60;8.57;;;;;;;;;;5075402;28;20443;-62
2021/07/09 01:52:45;;;;;;;9.97;9.00;;;;;;;;;;5075673;28;20524;-62
2021/07/09 01:55:13;;;;;;;10.10;8.50;;;;;;;;;;5075326;28;20531;-63
2021/07/09 01:57:41;;;;;;;9.63;8.70;;;;;;;;;;5075286;28;20443;-62
2021/07/09 02:00:11;;;;;;;13.90;9.70;;;;;;;;;;5075646;28;20448;-62
2021/07/09 02:02:39;;;;;;;11.37;9.40;;;;;;;;;;5075595;28;20463;-62
2021/07/09 02:05:08;;;;;;;9.20;8.30;;;;;;;;;;5075694;28;20508;-62
2021/07/09 02:07:35;;;;;;;10.70;8.70;;;;;;;;;;5075282;28;20516;-62
2021/07/09 02:10:02;;;;;;;9.87;8.97;;;;;;;;;;5075725;28;20447;-62
2021/07/09 02:12:30;;;;;;;10.60;9.40;;;;;;;;;;5075807;28;20471;-62
2021/07/09 02:14:57;;;;;;;12.13;10.03;;;;;;;;;;5075772;28;20832;-62
2021/07/09 02:17:26;;;;;;;12.10;9.50;;;;;;;;;;5075575;28;20512;-62
2021/07/09 02:19:53;;;;;;;10.50;9.40;;;;;;;;;;5075306;28;20936;-62
2021/07/09 02:22:22;;;;;;;9.97;8.80;;;;;;;;;;5075444;28;20870;-62
2021/07/09 02:24:50;;;;;;;10.10;9.10;;;;;;;;;;5075688;28;20443;-62
2021/07/09 02:27:18;;;;;;;13.83;9.70;;;;;;;;;;5075519;28;20439;-62
2021/07/09 02:29:46;;;;;;;11.50;9.90;;;;;;;;;;5075318;28;20451;-62
2021/07/09 02:32:14;;;;;;;11.20;10.03;;;;;;;;;;5075207;28;21020;-62
2021/07/09 02:34:43;;;;;;;12.47;9.67;;;;;;;;;;5076857;28;20471;-62
2021/07/09 02:37:11;;;;;;;11.10;10.00;;;;;;;;;;5075382;28;20450;-62
2021/07/09 02:39:40;;;;;;;11.67;10.50;;;;;;;;;;5074948;28;20443;-61
2021/07/09 02:42:07;;;;;;;12.33;10.30;;;;;;;;;;5075024;28;21044;-62
2021/07/09 02:44:34;;;;;;;11.93;10.90;;;;;;;;;;5075714;28;20501;-61
2021/07/09 02:47:02;;;;;;;11.97;10.80;;;;;;;;;;5075831;28;20496;-62
2021/07/09 02:49:29;;;;;;;12.10;11.00;;;;;;;;;;5075296;28;20496;-62
2021/07/09 02:51:57;;;;;;;12.77;11.33;;;;;;;;;;5074899;28;20990;-62
2021/07/09 02:54:25;;;;;;;12.27;10.60;;;;;;;;;;5075089;28;20544;-62
2021/07/09 02:56:52;;;;;;;14.70;11.20;;;;;;;;;;5074771;28;20447;-61
2021/07/09 02:59:19;;;;;;;11.70;10.50;;;;;;;;;;5074312;28;20834;-62
2021/07/09 03:01:46;;;;;;;11.90;10.20;;;;;;;;;;5074586;28;20443;-61
2021/07/09 03:04:14;;;;;;;12.53;9.80;;;;;;;;;;5074648;28;20493;-62
2021/07/09 03:06:41;;;;;;;11.67;10.47;;;;;;;;;;5074240;28;20455;-61
2021/07/09 03:09:11;;;;;;;11.40;10.20;;;;;;;;;;5074384;28;20443;-61
2021/07/09 03:11:38;;;;;;;13.50;10.70;;;;;;;;;;5074244;28;20447;-61
2021/07/09 03:14:06;;;;;;;12.60;11.50;;;;;;;;;;5073937;28;20479;-61
2021/07/09 03:16:34;;;;;;;11.60;10.50;;;;;;;;;;5073917;28;20954;-61
2021/07/09 03:19:01;;;;;;;14.13;12.87;;;;;;;;;;5073699;28;20496;-62
2021/07/09 03:21:28;;;;;;;17.00;15.20;;;;;;;;;;5073975;28;20447;-62
2021/07/09 03:23:56;;;;;;;17.10;15.30;;;;;;;;;;5073810;28;20466;-61
2021/07/09 03:26:24;;;;;;;17.90;16.20;;;;;;;;;;5073675;28;20443;-61
2021/07/09 03:28:57;;;;;;;18.30;16.50;;;;;;;;;;5074047;28;20504;-62
2021/07/09 03:31:24;;;;;;;18.10;16.20;;;;;;;;;;5074145;28;20467;-62
2021/07/09 03:33:51;;;;;;;19.20;17.47;;;;;;;;;;5074093;28;21057;-62
2021/07/09 03:36:19;;;;;;;17.73;16.20;;;;;;;;;;5074293;28;20450;-62
2021/07/09 03:38:46;;;;;;;17.73;15.87;;;;;;;;;;5074277;28;20935;-62
2021/07/09 03:41:13;;;;;;;17.43;15.77;;;;;;;;;;5074138;28;20455;-61
2021/07/09 03:43:42;;;;;;;17.80;15.37;;;;;;;;;;5074272;28;20509;-61
2021/07/09 03:46:09;;;;;;;18.53;16.73;;;;;;;;;;5074670;28;20512;-61
2021/07/09 03:48:36;;;;;;;23.47;17.07;;;;;;;;;;5073666;28;20498;-62
2021/07/09 03:51:04;;;;;;;18.37;16.43;;;;;;;;;;5073380;28;20443;-63
2021/07/09 03:53:31;;;;;;;18.20;16.50;;;;;;;;;;5073153;28;20459;-62
2021/07/09 03:55:58;;;;;;;18.93;17.23;;;;;;;;;;5073508;28;20498;-62
2021/07/09 03:58:25;;;;;;;18.87;17.13;;;;;;;;;;5073081;28;20451;-62
2021/07/09 04:00:54;;;;;;;18.20;16.37;;;;;;;;;;5073479;28;20538;-62
2021/07/09 04:03:21;;;;;;;18.63;16.87;;;;;;;;;;5073268;28;20521;-62
2021/07/09 04:08:20;;;;;;;19.23;17.20;;;;;;;;;;5111956;27;20577;-63
2021/07/09 04:10:48;;;;;;;17.57;16.20;;;;;;;;;;5111528;28;20450;-62
2021/07/09 04:13:15;;;;;;;18.57;16.60;;;;;;;;;;5111109;28;20523;-62
2021/07/09 04:15:42;;;;;;;19.50;17.60;;;;;;;;;;5111276;28;20852;-63
2021/07/09 04:18:09;;;;;;;18.93;17.03;;;;;;;;;;5110937;28;20437;-63
2021/07/09 04:20:37;;;;;;;19.67;17.80;;;;;;;;;;5110778;28;20498;-61
2021/07/09 04:23:04;;;;;;;19.83;17.90;;;;;;;;;;5110685;28;20461;-62
2021/07/09 04:25:33;;;;;;;18.90;16.93;;;;;;;;;;5110511;28;20506;-62
2021/07/09 04:28:00;;;;;;;18.20;16.60;;;;;;;;;;5110860;28;20507;-62
2021/07/09 04:30:27;;;;;;;18.93;17.33;;;;;;;;;;5110711;28;20507;-62
2021/07/09 04:32:55;;;;;;;18.13;16.40;;;;;;;;;;5112874;28;20473;-62
2021/07/09 04:35:22;;;;;;;18.30;16.70;;;;;;;;;;5112727;28;21030;-61
2021/07/09 04:37:49;;;;;;;18.53;16.60;;;;;;;;;;5113529;28;20442;-61
2021/07/09 04:40:17;;;;;;;17.23;15.37;;;;;;;;;;5111738;28;20494;-61
2021/07/09 04:42:46;;;;;;;19.03;17.43;;;;;;;;;;5110862;28;20473;-61
2021/07/09 04:45:14;;;;;;;18.67;17.07;;;;;;;;;;5110338;28;20452;-62
2021/07/09 04:47:41;;;;;;;17.07;15.67;;;;;;;;;;5110566;28;20473;-62
2021/07/09 04:50:08;;;;;;;16.90;15.50;;;;;;;;;;5110571;28;20995;-62
2021/07/09 04:52:36;;;;;;;19.47;17.77;;;;;;;;;;5110366;28;20969;-61
2021/07/09 04:55:04;;;;;;;19.00;17.20;;;;;;;;;;5110864;28;20438;-62
2021/07/09 04:57:31;;;;;;;21.07;18.87;;;;;;;;;;5110876;28;20537;-62
2021/07/09 05:00:00;;;;;;;20.83;18.93;;;;;;;;;;5110278;28;20863;-62
2021/07/09 05:02:27;;;;;;;21.90;19.80;;;;;;;;;;5110872;28;20506;-62
2021/07/09 05:04:54;;;;;;;19.30;17.40;;;;;;;;;;5110828;28;20441;-62
2021/07/09 05:07:21;;;;;;;20.17;18.07;;;;;;;;;;5110289;28;20532;-62
2021/07/09 05:09:49;;;;;;;20.07;18.00;;;;;;;;;;5110181;28;20446;-61
2021/07/09 05:12:16;;;;;;;18.53;16.93;;;;;;;;;;5110422;28;20465;-61
2021/07/09 05:14:43;;;;;;;20.87;18.87;;;;;;;;;;5110138;28;20445;-62
2021/07/09 05:17:12;;;;;;;18.23;16.57;;;;;;;;;;5110212;28;20445;-61
2021/07/09 05:19:39;;;;;;;20.07;18.23;;;;;;;;;;5096805;28;20504;-62
2021/07/09 05:22:08;;;;;;;19.60;17.70;;;;;;;;;;5096613;28;20470;-61
2021/07/09 05:24:35;;;;;;;22.70;20.53;;;;;;;;;;5096713;28;20525;-62
2021/07/09 05:27:02;;;;;;;21.43;18.40;;;;;;;;;;5096487;28;20470;-62
2021/07/09 05:29:29;;;;;;;21.10;19.00;;;;;;;;;;5097868;28;20611;-61
2021/07/09 05:31:57;;;;;;;21.90;19.80;;;;;;;;;;5099411;28;20473;-61
2021/07/09 05:34:25;;;;;;;24.57;21.97;;;;;;;;;;5099111;28;20499;-60
2021/07/09 05:36:52;;;;;;;22.80;20.50;;;;;;;;;;5098075;28;20867;-61
2021/07/09 05:39:20;;;;;;;24.20;21.03;;;;;;;;;;5097060;28;20800;-62
2021/07/09 05:41:47;;;;;;;24.20;21.80;;;;;;;;;;5097423;28;20451;-62
2021/07/09 05:44:14;;;;;;;26.50;21.50;;;;;;;;;;5097367;28;20434;-62
2021/07/09 05:46:41;;;;;;;24.60;22.30;;;;;;;;;;5096367;28;20473;-65
2021/07/09 05:49:09;;;;;;;24.23;21.97;;;;;;;;;;5095904;28;20442;-63
2021/07/09 05:51:37;;;;;;;25.83;22.47;;;;;;;;;;5096591;28;20488;-62
2021/07/09 05:54:04;;;;;;;23.07;20.80;;;;;;;;;;5096136;28;20438;-63
2021/07/09 05:56:32;;;;;;;24.30;22.03;;;;;;;;;;5096128;28;20861;-62
2021/07/09 05:58:59;;;;;;;23.07;20.67;;;;;;;;;;5095807;28;20519;-62
2021/07/09 06:01:26;;;;;;;23.93;21.43;;;;;;;;;;5095523;28;20503;-62
2021/07/09 06:03:53;;;;;;;25.27;22.70;;;;;;;;;;5095688;28;20466;-62
2021/07/09 06:06:21;;;;;;;24.07;21.63;;;;;;;;;;5094729;28;20523;-62
2021/07/09 06:08:49;;;;;;;24.57;22.10;;;;;;;;;;5095168;28;20508;-62
2021/07/09 06:11:16;;;;;;;24.47;22.07;;;;;;;;;;5095011;28;20820;-63
2021/07/09 06:13:44;;;;;;;23.90;21.63;;;;;;;;;;5095318;28;20528;-62
2021/07/09 06:16:11;;;;;;;26.47;22.50;;;;;;;;;;5095764;28;20511;-62
2021/07/09 06:18:38;;;;;;;25.03;22.50;;;;;;;;;;5095083;28;20496;-62
2021/07/09 06:21:05;;;;;;;23.73;21.47;;;;;;;;;;5095042;28;20788;-62
2021/07/09 06:23:33;;;;;;;23.93;21.53;;;;;;;;;;5094384;28;20470;-62
2021/07/09 06:26:01;;;;;;;24.77;22.17;;;;;;;;;;5095002;28;20523;-62
2021/07/09 06:28:29;;;;;;;26.40;23.53;;;;;;;;;;5094871;28;20478;-62
2021/07/09 06:30:56;;;;;;;25.03;22.70;;;;;;;;;;5093675;28;20504;-61
2021/07/09 06:33:23;;;;;;;25.90;23.33;;;;;;;;;;5094717;28;20511;-62
2021/07/09 06:35:50;;;;;;;25.53;22.83;;;;;;;;;;5095265;28;20507;-62
2021/07/09 06:38:18;;;;;;;25.43;22.87;;;;;;;;;;5095357;28;20814;-61
2021/07/09 06:40:45;;;;;;;24.03;21.63;;;;;;;;;;5095435;28;20446;-61
2021/07/09 06:43:14;;;;;;;25.30;22.80;;;;;;;;;;5094488;28;20481;-62
2021/07/09 06:45:42;;;;;;;26.30;23.70;;;;;;;;;;5094830;28;20450;-62
2021/07/09 06:48:09;;;;;;;24.77;22.20;;;;;;;;;;5094972;28;20470;-62
2021/07/09 06:50:37;;;;;;;23.60;21.50;;;;;;;;;;5095235;28;20446;-62
2021/07/09 06:53:05;;;;;;;23.80;21.50;;;;;;;;;;5094913;28;20507;-62
2021/07/09 06:55:32;;;;;;;23.00;20.80;;;;;;;;;;5094802;28;20450;-62
2021/07/09 06:57:59;;;;;;;25.27;22.53;;;;;;;;;;5094568;28;20438;-62
2021/07/09 07:00:28;;;;;;;24.57;22.07;;;;;;;;;;5095130;28;20434;-61
2021/07/09 07:02:55;;;;;;;25.80;20.77;;;;;;;;;;5094445;28;20458;-63
2021/07/09 07:05:22;;;;;;;24.30;21.90;;;;;;;;;;5095734;28;20445;-63
2021/07/09 07:07:49;;;;;;;23.50;21.17;;;;;;;;;;5094483;28;20576;-61
2021/07/09 07:10:17;;;;;;;22.70;20.40;;;;;;;;;;5094912;28;20443;-61
2021/07/09 07:12:45;;;;;;;24.70;21.90;;;;;;;;;;5094506;28;20520;-61
2021/07/09 07:15:13;;;;;;;23.87;21.10;;;;;;;;;;5094285;28;20477;-61
2021/07/09 07:17:42;;;;;;;23.93;21.43;;;;;;;;;;5094567;28;20515;-61
2021/07/09 07:20:10;;;;;;;22.70;20.33;;;;;;;;;;5094077;28;20442;-61
2021/07/09 07:22:37;;;;;;;24.00;21.27;;;;;;;;;;5093814;28;20974;-62
2021/07/09 07:25:05;;;;;;;22.47;20.17;;;;;;;;;;5094137;28;20504;-60
2021/07/09 07:27:32;;;;;;;23.10;20.60;;;;;;;;;;5093869;28;20519;-61
2021/07/09 07:29:59;;;;;;;24.07;21.20;;;;;;;;;;5094072;28;20491;-60
2021/07/09 07:32:27;;;;;;;23.40;21.07;;;;;;;;;;5094144;28;20519;-60
2021/07/09 07:34:56;;;;;;;20.80;18.80;;;;;;;;;;5093882;28;20853;-61
2021/07/09 07:37:23;;;;;;;21.63;19.37;;;;;;;;;;5093930;28;20545;-62
2021/07/09 07:39:50;;;;;;;19.03;17.13;;;;;;;;;;5093993;28;20495;-61
2021/07/09 07:42:17;;;;;;;19.97;17.97;;;;;;;;;;5093368;28;20477;-62
2021/07/09 07:44:45;;;;;;;19.77;17.97;;;;;;;;;;5093951;28;20495;-62
2021/07/09 07:47:12;;;;;;;20.17;18.07;;;;;;;;;;5093708;28;20446;-62
2021/07/09 07:49:39;;;;;;;19.60;17.73;;;;;;;;;;5093427;28;20449;-61
2021/07/09 07:52:08;;;;;;;19.73;17.83;;;;;;;;;;5093494;28;20462;-60
2021/07/09 07:54:35;;;;;;;18.73;16.83;;;;;;;;;;5093221;28;20504;-61
2021/07/09 07:57:02;;;;;;;17.47;15.80;;;;;;;;;;5093671;28;20446;-61
2021/07/09 07:59:30;;;;;;;18.30;16.50;;;;;;;;;;5093585;28;20533;-62
2021/07/09 08:01:57;;;;;;;18.73;16.93;;;;;;;;;;5093305;28;20539;-62
2021/07/09 08:04:24;;;;;;;16.63;15.13;;;;;;;;;;5093207;28;20874;-61
2021/07/09 08:06:51;;;;;;;19.03;17.30;;;;;;;;;;5093643;28;20527;-62
2021/07/09 08:09:20;;;;;;;18.53;16.63;;;;;;;;;;5094050;28;20985;-61
2021/07/09 08:11:47;;;;;;;18.43;16.57;;;;;;;;;;5093501;28;20511;-63
2021/07/09 08:14:15;;;;;;;18.40;16.50;;;;;;;;;;5093587;28;20450;-62
2021/07/09 08:16:42;;;;;;;20.10;18.10;;;;;;;;;;5093048;28;20930;-62
2021/07/09 08:19:09;;;;;;;20.83;18.87;;;;;;;;;;5093104;28;20492;-62
2021/07/09 08:21:36;;;;;;;19.80;17.80;;;;;;;;;;5093439;28;20499;-62
2021/07/09 08:24:04;;;;;;;21.53;19.27;;;;;;;;;;5093521;28;20446;-61
2021/07/09 08:26:32;;;;;;;20.80;18.73;;;;;;;;;;5093438;28;20446;-62
2021/07/09 08:29:00;;;;;;;24.27;18.37;;;;;;;;;;5093199;28;20474;-62
2021/07/09 08:31:27;;;;;;;21.23;19.03;;;;;;;;;;5092843;28;20537;-63
2021/07/09 08:33:54;;;;;;;21.43;18.80;;;;;;;;;;5092684;28;20982;-62
2021/07/09 08:36:23;;;;;;;21.50;19.40;;;;;;;;;;5092570;28;20511;-62
2021/07/09 08:38:50;;;;;;;21.70;19.60;;;;;;;;;;5094482;28;20448;-62
2021/07/09 08:41:18;;;;;;;21.23;19.20;;;;;;;;;;5093151;28;20443;-62
2021/07/09 08:43:46;;;;;;;24.23;20.30;;;;;;;;;;5093375;28;20495;-62
2021/07/09 08:46:14;;;;;;;24.57;21.97;;;;;;;;;;5093525;28;20499;-62
2021/07/09 08:48:41;;;;;;;24.63;21.87;;;;;;;;;;5093730;28;20539;-63
2021/07/09 08:51:09;;;;;;;22.90;20.03;;;;;;;;;;5093929;28;20934;-64
2021/07/09 08:53:36;;;;;;;24.73;22.23;;;;;;;;;;5095446;28;20472;-62
2021/07/09 08:56:04;;;;;;;25.40;22.90;;;;;;;;;;5098679;28;20824;-62
2021/07/09 08:58:31;;;;;;;26.77;24.10;;;;;;;;;;5096943;28;20438;-62
2021/07/09 09:01:00;;;;;;;25.50;23.00;;;;;;;;;;5097019;28;20442;-62
2021/07/09 09:03:28;;;;;;;23.97;21.77;;;;;;;;;;5096836;28;20470;-62
2021/07/09 09:06:00;;;;;;;24.07;21.50;;;;;;;;;;5096817;28;20442;-61
2021/07/09 09:08:28;;;;;;;23.63;21.53;;;;;;;;;;5097306;28;20588;-63
2021/07/09 09:10:58;;;;;;;25.30;22.87;;;;;;;;;;5096998;28;20442;-63
2021/07/09 09:13:26;;;;;;;23.50;21.20;;;;;;;;;;5097446;28;20832;-61
2021/07/09 09:16:02;;;;;;;25.20;22.70;;;;;;;;;;5097645;28;20926;-62
2021/07/09 09:18:30;;;;;;;26.60;24.10;;;;;;;;;;5097590;28;20918;-61
2021/07/09 09:20:58;;;;;;;25.97;23.50;;;;;;;;;;5097684;28;20537;-61
2021/07/09 09:23:26;;;;;;;25.53;23.03;;;;;;;;;;5096614;28;20466;-61
2021/07/09 09:25:53;;;;;;;27.93;25.30;;;;;;;;;;5096621;28;20796;-61
2021/07/09 09:28:21;;;;;;;26.77;24.30;;;;;;;;;;5096064;28;20478;-61
2021/07/09 09:30:51;;;;;;;29.40;25.27;;;;;;;;;;5096281;28;20434;-62
2021/07/09 09:33:20;;;;;;;25.57;23.27;;;;;;;;;;5096165;28;20519;-62
2021/07/09 09:35:50;;;;;;;26.67;24.27;;;;;;;;;;5096215;28;20545;-62
2021/07/09 09:38:18;;;;;;;27.20;24.40;;;;;;;;;;5096055;28;20446;-63
2021/07/09 09:40:46;;;;;;;25.70;23.23;;;;;;;;;;5095736;28;20493;-63
2021/07/09 09:43:14;;;;;;;25.27;22.87;;;;;;;;;;5095623;28;20458;-63
2021/07/09 09:45:42;;;;;;;21.67;19.57;;;;;;;;;;5096038;28;20487;-62
2021/07/09 09:48:11;;;;;;;21.27;19.33;;;;;;;;;;5095497;28;20521;-63
2021/07/09 09:50:44;;;;;;;21.43;19.53;;;;;;;;;;5095528;28;20552;-61
2021/07/09 09:53:11;;;;;;;24.60;19.40;;;;;;;;;;5095940;28;20512;-62
2021/07/09 09:55:39;;;;;;;17.97;16.37;;;;;;;;;;5095811;28;20495;-62
2021/07/09 09:58:10;;;;;;;20.57;18.67;;;;;;;;;;5095840;28;20442;-62
2021/07/09 10:00:38;;;;;;;18.37;16.87;;;;;;;;;;5095617;28;20533;-61
2021/07/09 10:03:06;;;;;;;17.93;16.33;;;;;;;;;;5096201;28;20462;-61
2021/07/09 10:05:35;;;;;;;18.33;16.60;;;;;;;;;;5095507;28;20468;-61
2021/07/09 10:08:05;;;;;;;18.80;17.00;;;;;;;;;;5095053;28;20518;-62
2021/07/09 10:10:32;;;;;;;19.83;18.13;;;;;;;;;;5096536;28;20503;-61
2021/07/09 10:13:01;;;;;;;18.87;17.27;;;;;;;;;;5095342;28;20970;-62
2021/07/09 10:15:30;;;;;;;18.73;17.13;;;;;;;;;;5095558;28;20523;-60
2021/07/09 10:17:57;;;;;;;18.43;16.77;;;;;;;;;;5095460;28;20537;-61
2021/07/09 10:20:24;;;;;;;18.40;16.70;;;;;;;;;;5095211;28;20449;-60
2021/07/09 10:22:52;;;;;;;18.60;17.10;;;;;;;;;;5094591;28;20470;-61
2021/07/09 10:25:23;;;;;;;18.03;16.43;;;;;;;;;;5095082;28;20475;-62
2021/07/09 10:27:50;;;;;;;18.70;17.10;;;;;;;;;;5096932;28;20522;-60
2021/07/09 10:30:18;;;;;;;19.00;17.30;;;;;;;;;;5095340;28;20545;-61
2021/07/09 10:32:48;;;;;;;19.03;17.43;;;;;;;;;;5095243;28;20595;-61
2021/07/09 10:35:30;;;;;;;19.77;18.17;;;;;;;;;;5097370;28;20482;-61
2021/07/09 10:38:08;;;;;;;21.57;19.77;;;;;;;;;;5097738;28;20484;-59
2021/07/09 10:40:36;;;;;;;22.70;20.80;;;;;;;;;;5098685;28;20840;-62
2021/07/09 10:43:05;;;;;;;23.00;21.20;;;;;;;;;;5096734;28;20454;-61
2021/07/09 10:45:34;;;;;;;24.00;21.90;;;;;;;;;;5095055;28;20858;-61
2021/07/09 10:48:09;;;;;;;26.10;23.73;;;;;;;;;;5094652;28;20446;-61
2021/07/09 10:50:41;;;;;;;26.57;24.37;;;;;;;;;;5094336;28;20441;-61
2021/07/09 10:53:28;;;;;;;26.40;24.20;;;;;;;;;;5094420;28;20459;-61
2021/07/09 10:55:58;;;;;;;24.80;22.73;;;;;;;;;;5094227;28;21000;-61
2021/07/09 10:58:29;;;;;;;24.73;22.43;;;;;;;;;;5094649;28;20859;-61
2021/07/09 11:00:57;;;;;;;25.23;23.10;;;;;;;;;;5094621;28;20422;-61
2021/07/09 11:03:25;;;;;;;26.27;23.97;;;;;;;;;;5095063;28;20463;-61
2021/07/09 11:06:10;;;;;;;24.10;22.20;;;;;;;;;;5093862;28;20446;-62
2021/07/09 11:08:56;;;;;;;24.30;22.20;;;;;;;;;;5094504;28;20864;-63
2021/07/09 11:11:51;;;;;;;24.37;22.27;;;;;;;;;;5094568;28;20422;-63
2021/07/09 11:14:21;;;;;;;24.23;22.27;;;;;;;;;;5094307;28;20418;-63
2021/07/09 11:16:50;;;;;;;25.27;22.97;;;;;;;;;;5093107;28;20422;-62
2021/07/09 11:19:18;;;;;;;24.73;22.63;;;;;;;;;;5094274;28;20470;-62
2021/07/09 11:21:53;;;;;;;28.50;26.17;;;;;;;;;;5093819;28;20447;-63
2021/07/09 11:24:21;;;;;;;26.07;23.97;;;;;;;;;;5093607;28;20437;-63
2021/07/09 11:26:48;;;;;;;26.03;23.93;;;;;;;;;;5093925;28;20495;-63
2021/07/09 11:29:24;;;;;;;27.70;25.30;;;;;;;;;;5093805;28;20482;-63
2021/07/09 11:31:52;;;;;;;29.13;26.70;;;;;;;;;;5093285;28;20847;-63
2021/07/09 11:34:20;;;;;;;29.60;26.87;;;;;;;;;;5093505;28;20454;-62
2021/07/09 11:36:48;;;;;;;26.47;24.23;;;;;;;;;;5094214;28;20499;-62
2021/07/09 11:39:16;;;;;;;28.03;25.70;;;;;;;;;;5093890;28;20446;-62
2021/07/09 11:41:50;;;;;;;29.00;26.20;;;;;;;;;;5093519;28;20455;-63
2021/07/09 11:44:18;;;;;;;27.47;25.07;;;;;;;;;;5093454;28;20499;-61
2021/07/09 11:46:48;;;;;;;26.37;24.17;;;;;;;;;;5093959;28;20511;-62
2021/07/09 11:49:22;;;;;;;27.27;25.07;;;;;;;;;;5093246;28;20977;-60
2021/07/09 11:51:51;;;;;;;26.97;24.83;;;;;;;;;;5093351;28;20499;-60
2021/07/09 11:54:22;;;;;;;26.90;24.40;;;;;;;;;;5093317;28;20964;-60
2021/07/09 11:56:52;;;;;;;28.50;26.00;;;;;;;;;;5094085;28;20426;-59
2021/07/09 11:59:20;;;;;;;27.10;24.70;;;;;;;;;;5093232;28;20526;-62
2021/07/09 12:02:02;;;;;;;28.30;25.80;;;;;;;;;;5093434;28;20481;-62
2021/07/09 12:04:29;;;;;;;28.47;26.07;;;;;;;;;;5093278;28;20495;-63
2021/07/09 12:07:11;;;;;;;28.57;26.20;;;;;;;;;;5093209;28;20454;-62
2021/07/09 12:09:38;;;;;;;28.43;26.13;;;;;;;;;;5093458;28;21000;-62
2021/07/09 12:12:06;;;;;;;27.63;25.20;;;;;;;;;;5093095;28;20466;-61
2021/07/09 12:14:33;;;;;;;27.63;25.33;;;;;;;;;;5093303;28;20447;-62
2021/07/09 12:17:02;;;;;;;26.77;24.50;;;;;;;;;;5093041;28;20446;-61
2021/07/09 12:19:29;;;;;;;24.37;22.20;;;;;;;;;;5093446;28;20938;-62
2021/07/09 12:21:56;;;;;;;26.10;22.93;;;;;;;;;;5093377;28;20974;-63
2021/07/09 12:24:24;;;;;;;25.43;23.43;;;;;;;;;;5092896;28;20446;-62
2021/07/09 12:26:52;;;;;;;23.47;21.50;;;;;;;;;;5093500;28;20496;-62
2021/07/09 12:29:19;;;;;;;25.60;23.13;;;;;;;;;;5096037;28;20551;-62
2021/07/09 12:31:46;;;;;;;23.80;21.40;;;;;;;;;;5097756;28;20994;-61
2021/07/09 12:34:24;;;;;;;22.83;20.90;;;;;;;;;;5096647;28;20810;-60
2021/07/09 12:37:02;;;;;;;22.83;20.73;;;;;;;;;;5097949;28;20483;-61
2021/07/09 12:39:30;;;;;;;24.30;21.93;;;;;;;;;;5097699;28;20521;-62
2021/07/09 12:41:57;;;;;;;20.77;18.77;;;;;;;;;;5096845;28;21051;-62
2021/07/09 12:44:24;;;;;;;22.70;20.80;;;;;;;;;;5097035;28;20442;-63
2021/07/09 12:46:51;;;;;;;23.77;21.70;;;;;;;;;;5097009;28;20442;-62
2021/07/09 12:49:24;;;;;;;20.10;18.30;;;;;;;;;;5096800;28;20824;-63
2021/07/09 12:51:51;;;;;;;20.33;18.27;;;;;;;;;;5097146;28;20430;-63
2021/07/09 12:54:20;;;;;;;18.87;17.13;;;;;;;;;;5097220;28;20515;-61
2021/07/09 12:56:48;;;;;;;19.83;17.97;;;;;;;;;;5097004;28;20454;-61
2021/07/09 12:59:19;;;;;;;18.70;16.70;;;;;;;;;;5096872;28;20599;-62
2021/07/09 13:01:47;;;;;;;18.23;16.57;;;;;;;;;;5096639;28;20525;-60
2021/07/09 13:04:19;;;;;;;17.13;15.63;;;;;;;;;;5097221;28;20834;-63
2021/07/09 13:06:48;;;;;;;16.63;15.23;;;;;;;;;;5096174;28;20527;-61
2021/07/09 13:09:16;;;;;;;18.40;16.03;;;;;;;;;;5096406;28;20482;-60
2021/07/09 13:11:44;;;;;;;17.27;15.50;;;;;;;;;;5097223;28;20446;-61
2021/07/09 13:14:11;;;;;;;18.27;16.37;;;;;;;;;;5097244;28;20449;-62
2021/07/09 13:16:48;;;;;;;15.90;14.33;;;;;;;;;;5096037;28;20910;-62
2021/07/09 13:19:15;;;;;;;18.67;16.70;;;;;;;;;;5096209;28;20506;-60
2021/07/09 13:21:53;;;;;;;20.23;18.33;;;;;;;;;;5096117;28;20501;-61
2021/07/09 13:24:20;;;;;;;20.93;18.13;;;;;;;;;;5096128;28;20431;-60
2021/07/09 13:26:49;;;;;;;22.23;20.03;;;;;;;;;;5096151;28;20567;-59
2021/07/09 13:29:17;;;;;;;25.67;20.33;;;;;;;;;;5096612;28;20512;-59
2021/07/09 13:31:45;;;;;;;20.03;18.03;;;;;;;;;;5096247;28;20937;-59
2021/07/09 13:34:12;;;;;;;18.83;16.87;;;;;;;;;;5095878;28;20867;-58
2021/07/09 13:36:39;;;;;;;17.07;15.27;;;;;;;;;;5096099;28;20525;-60
2021/07/09 13:39:08;;;;;;;15.77;14.07;;;;;;;;;;5094855;28;20946;-60
2021/07/09 13:41:35;;;;;;;16.07;14.43;;;;;;;;;;5095485;28;20438;-60
2021/07/09 13:44:02;;;;;;;17.93;14.43;;;;;;;;;;5095771;28;20940;-59
2021/07/09 13:46:30;;;;;;;18.10;14.60;;;;;;;;;;5095202;28;20954;-60
2021/07/09 13:48:57;;;;;;;16.87;14.90;;;;;;;;;;5095587;28;20785;-60
2021/07/09 13:51:24;;;;;;;15.37;13.80;;;;;;;;;;5095913;28;20515;-60
2021/07/09 13:53:52;;;;;;;19.40;14.10;;;;;;;;;;5095162;28;20466;-60
2021/07/09 13:56:20;;;;;;;14.27;12.97;;;;;;;;;;5095350;28;21003;-60
2021/07/09 13:58:48;;;;;;;14.23;12.77;;;;;;;;;;5096174;28;20499;-60
2021/07/09 14:01:15;;;;;;;14.80;13.03;;;;;;;;;;5095607;28;20442;-60
2021/07/09 14:03:43;;;;;;;17.83;13.60;;;;;;;;;;5095661;28;20466;-59
2021/07/09 14:06:12;;;;;;;16.40;14.70;;;;;;;;;;5095370;28;20864;-60
2021/07/09 14:08:39;;;;;;;18.53;16.60;;;;;;;;;;5096062;28;20426;-60
2021/07/09 14:11:07;;;;;;;21.40;17.70;;;;;;;;;;5095605;28;20485;-61
2021/07/09 14:13:36;;;;;;;19.70;16.30;;;;;;;;;;5095761;28;20493;-60
2021/07/09 14:16:04;;;;;;;22.30;17.40;;;;;;;;;;5096002;28;20491;-61
2021/07/09 14:18:31;;;;;;;19.20;15.87;;;;;;;;;;5095702;28;20554;-60
2021/07/09 14:20:58;;;;;;;19.20;16.87;;;;;;;;;;5095687;28;20442;-64
2021/07/09 14:23:26;;;;;;;20.20;17.40;;;;;;;;;;5095651;28;20466;-61
2021/07/09 14:25:53;;;;;;;20.47;18.27;;;;;;;;;;5095446;28;20507;-60
2021/07/09 14:28:21;;;;;;;20.53;16.23;;;;;;;;;;5095231;28;20504;-61
2021/07/09 14:30:50;;;;;;;17.77;14.87;;;;;;;;;;5095301;28;20562;-61